Wellington, Illinois
Current Conditions -  °F | °C
As of 6:35 AM on Monday 22 Dec 2014 (Local Time) from KDNV Reporting Station
Overcast Overcast  
Wind Chill: 26°   Ceiling: 5500
Heat Index: 32°   Visibility: 7mi
Dew Point: 29°   Wind: 7mph
Humidity: 88%   Direction: 90°E
Pressure: 29.9"   Gusts: NA
Location:  40.54°N, 87.68°W
Report Text: KDNV 221235Z AUTO 09006KT 7SM SCT040 SCT046 OVC055 00/M02 A2990 RMK AO2 T00001017
Loading
Personal Weather Stations






























Interactive Weather Map New forecast layout! Learn more

10-Day Weather Forecast

Advertisements
Track Severe Weather on mobile